sensor_id;sensor_type;location;lat;lon;timestamp;pressure;altitude;pressure_sealevel;temperature
24586;BMP280;12743;52.262;6.172;2023-02-01T00:00:26;100478.81;;;4.44
24586;BMP280;12743;52.262;6.172;2023-02-01T00:02:53;100465.63;;;4.40
24586;BMP280;12743;52.262;6.172;2023-02-01T00:05:20;100474.91;;;4.47
24586;BMP280;12743;52.262;6.172;2023-02-01T00:07:47;100454.88;;;4.47
24586;BMP280;12743;52.262;6.172;2023-02-01T00:10:14;100418.50;;;4.28
24586;BMP280;12743;52.262;6.172;2023-02-01T00:12:41;100439.34;;;4.42
24586;BMP280;12743;52.262;6.172;2023-02-01T00:15:08;100437.72;;;4.46
24586;BMP280;12743;52.262;6.172;2023-02-01T00:17:34;100431.28;;;4.44
24586;BMP280;12743;52.262;6.172;2023-02-01T00:20:01;100416.91;;;4.32
24586;BMP280;12743;52.262;6.172;2023-02-01T00:22:28;100427.13;;;4.43
24586;BMP280;12743;52.262;6.172;2023-02-01T00:24:54;100412.66;;;4.36
24586;BMP280;12743;52.262;6.172;2023-02-01T00:27:21;100401.47;;;4.36
24586;BMP280;12743;52.262;6.172;2023-02-01T00:29:47;100390.31;;;4.35
24586;BMP280;12743;52.262;6.172;2023-02-01T00:32:14;100396.75;;;4.38
24586;BMP280;12743;52.262;6.172;2023-02-01T00:34:41;100393.88;;;4.39
24586;BMP280;12743;52.262;6.172;2023-02-01T00:37:07;100380.13;;;4.39
24586;BMP280;12743;52.262;6.172;2023-02-01T00:39:34;100362.00;;;4.34
24586;BMP280;12743;52.262;6.172;2023-02-01T00:42:00;100375.91;;;4.43
24586;BMP280;12743;52.262;6.172;2023-02-01T00:44:28;100361.91;;;4.39
24586;BMP280;12743;52.262;6.172;2023-02-01T00:47:00;100381.09;;;4.43
24586;BMP280;12743;52.262;6.172;2023-02-01T00:49:27;100384.13;;;4.50
24586;BMP280;12743;52.262;6.172;2023-02-01T00:51:54;100382.25;;;4.51
24586;BMP280;12743;52.262;6.172;2023-02-01T00:54:21;100402.78;;;4.52
24586;BMP280;12743;52.262;6.172;2023-02-01T00:56:48;100388.13;;;4.43
24586;BMP280;12743;52.262;6.172;2023-02-01T00:59:14;100401.81;;;4.48
24586;BMP280;12743;52.262;6.172;2023-02-01T01:01:41;100387.75;;;4.49
24586;BMP280;12743;52.262;6.172;2023-02-01T01:04:07;100391.59;;;4.52
24586;BMP280;12743;52.262;6.172;2023-02-01T01:06:34;100382.25;;;4.37
24586;BMP280;12743;52.262;6.172;2023-02-01T01:09:05;100399.53;;;4.60
24586;BMP280;12743;52.262;6.172;2023-02-01T01:11:34;100394.13;;;4.57
24586;BMP280;12743;52.262;6.172;2023-02-01T01:14:02;100382.44;;;4.54
24586;BMP280;12743;52.262;6.172;2023-02-01T01:16:30;100365.13;;;4.50
24586;BMP280;12743;52.262;6.172;2023-02-01T01:18:58;100382.94;;;4.56
24586;BMP280;12743;52.262;6.172;2023-02-01T01:21:24;100366.38;;;4.52
24586;BMP280;12743;52.262;6.172;2023-02-01T01:23:51;100353.09;;;4.54
24586;BMP280;12743;52.262;6.172;2023-02-01T01:26:24;100333.75;;;4.60
24586;BMP280;12743;52.262;6.172;2023-02-01T01:28:51;100345.88;;;4.64
24586;BMP280;12743;52.262;6.172;2023-02-01T01:31:19;100317.94;;;4.43
24586;BMP280;12743;52.262;6.172;2023-02-01T01:33:54;100342.31;;;4.60
24586;BMP280;12743;52.262;6.172;2023-02-01T01:36:22;100340.84;;;4.54
24586;BMP280;12743;52.262;6.172;2023-02-01T01:38:49;100328.94;;;4.53
24586;BMP280;12743;52.262;6.172;2023-02-01T01:41:19;100319.44;;;4.57
24586;BMP280;12743;52.262;6.172;2023-02-01T01:44:04;100318.19;;;4.55
24586;BMP280;12743;52.262;6.172;2023-02-01T01:46:38;100308.72;;;4.50
24586;BMP280;12743;52.262;6.172;2023-02-01T01:49:23;100258.88;;;4.16
24586;BMP280;12743;52.262;6.172;2023-02-01T01:51:56;100295.31;;;4.43
24586;BMP280;12743;52.262;6.172;2023-02-01T01:54:28;100295.59;;;4.41
24586;BMP280;12743;52.262;6.172;2023-02-01T01:57:00;100272.56;;;4.35
24586;BMP280;12743;52.262;6.172;2023-02-01T01:59:29;100278.34;;;4.46
24586;BMP280;12743;52.262;6.172;2023-02-01T02:01:57;100268.06;;;4.27
24586;BMP280;12743;52.262;6.172;2023-02-01T02:04:24;100283.28;;;4.47
24586;BMP280;12743;52.262;6.172;2023-02-01T02:06:56;100288.66;;;4.51
24586;BMP280;12743;52.262;6.172;2023-02-01T02:09:24;100271.97;;;4.38
24586;BMP280;12743;52.262;6.172;2023-02-01T02:11:51;100262.16;;;4.35
24586;BMP280;12743;52.262;6.172;2023-02-01T02:14:19;100273.56;;;4.53
24586;BMP280;12743;52.262;6.172;2023-02-01T02:22:27;100281.34;;;4.66
24586;BMP280;12743;52.262;6.172;2023-02-01T02:25:40;100270.06;;;4.71
24586;BMP280;12743;52.262;6.172;2023-02-01T02:28:30;100289.22;;;4.88
24586;BMP280;12743;52.262;6.172;2023-02-01T02:37:05;100359.91;;;5.18
24586;BMP280;12743;52.262;6.172;2023-02-01T02:39:53;100385.91;;;5.31
24586;BMP280;12743;52.262;6.172;2023-02-01T02:42:29;100394.09;;;5.25
24586;BMP280;12743;52.262;6.172;2023-02-01T02:45:23;100370.91;;;5.15
24586;BMP280;12743;52.262;6.172;2023-02-01T02:48:22;100400.38;;;5.37
24586;BMP280;12743;52.262;6.172;2023-02-01T02:51:13;100433.22;;;5.47
24586;BMP280;12743;52.262;6.172;2023-02-01T02:54:13;100419.72;;;5.45
24586;BMP280;12743;52.262;6.172;2023-02-01T02:57:00;100403.06;;;5.46
24586;BMP280;12743;52.262;6.172;2023-02-01T02:59:48;100366.81;;;5.36
24586;BMP280;12743;52.262;6.172;2023-02-01T03:02:34;100374.78;;;5.53
24586;BMP280;12743;52.262;6.172;2023-02-01T03:05:20;100366.00;;;5.49
24586;BMP280;12743;52.262;6.172;2023-02-01T03:08:24;100352.88;;;5.54
24586;BMP280;12743;52.262;6.172;2023-02-01T03:16:18;100285.19;;;5.40
24586;BMP280;12743;52.262;6.172;2023-02-01T03:21:35;100287.19;;;5.43
24586;BMP280;12743;52.262;6.172;2023-02-01T03:24:14;100280.16;;;5.44
24586;BMP280;12743;52.262;6.172;2023-02-01T03:26:46;100299.13;;;5.58
24586;BMP280;12743;52.262;6.172;2023-02-01T03:29:17;100321.38;;;5.64
24586;BMP280;12743;52.262;6.172;2023-02-01T03:31:45;100316.09;;;5.55
24586;BMP280;12743;52.262;6.172;2023-02-01T03:34:12;100330.25;;;5.63
24586;BMP280;12743;52.262;6.172;2023-02-01T03:36:48;100335.56;;;5.58
24586;BMP280;12743;52.262;6.172;2023-02-01T03:39:34;100382.72;;;5.70
24586;BMP280;12743;52.262;6.172;2023-02-01T03:42:19;100394.38;;;5.73
24586;BMP280;12743;52.262;6.172;2023-02-01T03:47:19;100424.66;;;5.82
24586;BMP280;12743;52.262;6.172;2023-02-01T03:49:54;100432.38;;;5.74
24586;BMP280;12743;52.262;6.172;2023-02-01T03:52:28;100424.88;;;5.72
24586;BMP280;12743;52.262;6.172;2023-02-01T03:54:56;100432.97;;;5.71
24586;BMP280;12743;52.262;6.172;2023-02-01T03:57:27;100422.09;;;5.69
24586;BMP280;12743;52.262;6.172;2023-02-01T04:00:07;100455.25;;;5.77
24586;BMP280;12743;52.262;6.172;2023-02-01T04:02:39;100431.16;;;5.57
24586;BMP280;12743;52.262;6.172;2023-02-01T04:05:06;100434.63;;;5.67
24586;BMP280;12743;52.262;6.172;2023-02-01T04:07:33;100389.66;;;5.52
24586;BMP280;12743;52.262;6.172;2023-02-01T04:09:59;100427.59;;;5.67
24586;BMP280;12743;52.262;6.172;2023-02-01T04:12:26;100433.34;;;5.78
24586;BMP280;12743;52.262;6.172;2023-02-01T04:14:53;100423.31;;;5.71
24586;BMP280;12743;52.262;6.172;2023-02-01T04:17:19;100430.56;;;5.74
24586;BMP280;12743;52.262;6.172;2023-02-01T04:19:46;100432.88;;;5.76
24586;BMP280;12743;52.262;6.172;2023-02-01T04:22:13;100437.50;;;5.79
24586;BMP280;12743;52.262;6.172;2023-02-01T04:24:39;100419.78;;;5.67
24586;BMP280;12743;52.262;6.172;2023-02-01T04:27:05;100461.94;;;5.83
24586;BMP280;12743;52.262;6.172;2023-02-01T04:29:32;100454.25;;;5.86
24586;BMP280;12743;52.262;6.172;2023-02-01T04:31:59;100440.63;;;5.67
24586;BMP280;12743;52.262;6.172;2023-02-01T04:34:25;100463.44;;;5.84
24586;BMP280;12743;52.262;6.172;2023-02-01T04:36:52;100440.38;;;5.77
24586;BMP280;12743;52.262;6.172;2023-02-01T04:39:19;100450.41;;;5.84
24586;BMP280;12743;52.262;6.172;2023-02-01T04:41:45;100445.78;;;5.81
24586;BMP280;12743;52.262;6.172;2023-02-01T04:44:18;100460.72;;;5.89
24586;BMP280;12743;52.262;6.172;2023-02-01T04:46:46;100435.94;;;5.78
24586;BMP280;12743;52.262;6.172;2023-02-01T04:49:13;100438.75;;;5.81
24586;BMP280;12743;52.262;6.172;2023-02-01T04:51:41;100451.34;;;5.88
24586;BMP280;12743;52.262;6.172;2023-02-01T04:54:08;100457.53;;;5.92
24586;BMP280;12743;52.262;6.172;2023-02-01T04:56:35;100419.00;;;5.67
24586;BMP280;12743;52.262;6.172;2023-02-01T04:59:01;100441.22;;;5.86
24586;BMP280;12743;52.262;6.172;2023-02-01T05:01:31;100410.00;;;5.73
24586;BMP280;12743;52.262;6.172;2023-02-01T05:03:58;100420.97;;;5.83
24586;BMP280;12743;52.262;6.172;2023-02-01T05:06:24;100416.94;;;5.77
24586;BMP280;12743;52.262;6.172;2023-02-01T05:08:51;100414.84;;;5.79
24586;BMP280;12743;52.262;6.172;2023-02-01T05:11:17;100421.88;;;5.79
24586;BMP280;12743;52.262;6.172;2023-02-01T05:14:03;100430.16;;;5.81
24586;BMP280;12743;52.262;6.172;2023-02-01T05:16:29;100412.91;;;5.71
24586;BMP280;12743;52.262;6.172;2023-02-01T05:18:56;100408.66;;;5.75
24586;BMP280;12743;52.262;6.172;2023-02-01T05:21:23;100396.50;;;5.71
24586;BMP280;12743;52.262;6.172;2023-02-01T05:23:49;100415.22;;;5.73
24586;BMP280;12743;52.262;6.172;2023-02-01T05:26:35;100395.13;;;5.73
24586;BMP280;12743;52.262;6.172;2023-02-01T05:29:03;100405.09;;;5.71
24586;BMP280;12743;52.262;6.172;2023-02-01T05:31:30;100403.56;;;5.70
24586;BMP280;12743;52.262;6.172;2023-02-01T05:33:56;100429.31;;;5.72
24586;BMP280;12743;52.262;6.172;2023-02-01T05:36:23;100411.50;;;5.65
24586;BMP280;12743;52.262;6.172;2023-02-01T05:38:50;100387.50;;;5.54
24586;BMP280;12743;52.262;6.172;2023-02-01T05:41:16;100353.22;;;5.39
24586;BMP280;12743;52.262;6.172;2023-02-01T05:43:43;100396.91;;;5.64
24586;BMP280;12743;52.262;6.172;2023-02-01T05:46:09;100383.50;;;5.57
24586;BMP280;12743;52.262;6.172;2023-02-01T05:48:40;100403.56;;;5.70
24586;BMP280;12743;52.262;6.172;2023-02-01T05:51:07;100397.09;;;5.68
24586;BMP280;12743;52.262;6.172;2023-02-01T05:53:34;100398.66;;;5.69
24586;BMP280;12743;52.262;6.172;2023-02-01T05:56:01;100389.28;;;5.68
24586;BMP280;12743;52.262;6.172;2023-02-01T05:58:28;100381.28;;;5.64
24586;BMP280;12743;52.262;6.172;2023-02-01T06:01:00;100400.72;;;5.80
24586;BMP280;12743;52.262;6.172;2023-02-01T06:03:27;100382.25;;;5.68
24586;BMP280;12743;52.262;6.172;2023-02-01T06:05:54;100354.59;;;5.58
24586;BMP280;12743;52.262;6.172;2023-02-01T06:08:21;100388.00;;;5.79
24586;BMP280;12743;52.262;6.172;2023-02-01T06:10:47;100379.69;;;5.77
24586;BMP280;12743;52.262;6.172;2023-02-01T06:13:14;100382.19;;;5.82
24586;BMP280;12743;52.262;6.172;2023-02-01T06:15:40;100393.75;;;5.89
24586;BMP280;12743;52.262;6.172;2023-02-01T06:18:08;100384.50;;;5.83
24586;BMP280;12743;52.262;6.172;2023-02-01T06:20:35;100391.69;;;5.86
24586;BMP280;12743;52.262;6.172;2023-02-01T06:23:01;100380.38;;;5.82
24586;BMP280;12743;52.262;6.172;2023-02-01T06:25:28;100378.09;;;5.89
24586;BMP280;12743;52.262;6.172;2023-02-01T06:27:54;100379.28;;;5.83
24586;BMP280;12743;52.262;6.172;2023-02-01T06:30:21;100367.03;;;5.84
24586;BMP280;12743;52.262;6.172;2023-02-01T06:32:50;100372.31;;;5.92
24586;BMP280;12743;52.262;6.172;2023-02-01T06:35:19;100370.41;;;5.84
24586;BMP280;12743;52.262;6.172;2023-02-01T06:37:46;100355.97;;;5.78
24586;BMP280;12743;52.262;6.172;2023-02-01T06:40:13;100389.28;;;5.90
24586;BMP280;12743;52.262;6.172;2023-02-01T06:42:39;100377.38;;;5.75
24586;BMP280;12743;52.262;6.172;2023-02-01T06:45:06;100370.41;;;5.84
24586;BMP280;12743;52.262;6.172;2023-02-01T06:47:33;100370.41;;;5.84
24586;BMP280;12743;52.262;6.172;2023-02-01T06:50:00;100367.63;;;5.81
24586;BMP280;12743;52.262;6.172;2023-02-01T06:52:26;100367.03;;;5.84
24586;BMP280;12743;52.262;6.172;2023-02-01T06:54:53;100389.59;;;5.88
24586;BMP280;12743;52.262;6.172;2023-02-01T06:57:19;100385.28;;;5.84
24586;BMP280;12743;52.262;6.172;2023-02-01T06:59:46;100401.84;;;5.88
24586;BMP280;12743;52.262;6.172;2023-02-01T07:02:12;100423.94;;;5.90
24586;BMP280;12743;52.262;6.172;2023-02-01T07:04:39;100447.09;;;5.92
24586;BMP280;12743;52.262;6.172;2023-02-01T07:07:06;100434.78;;;5.84
24586;BMP280;12743;52.262;6.172;2023-02-01T07:09:32;100436.00;;;5.86
24586;BMP280;12743;52.262;6.172;2023-02-01T07:11:59;100443.19;;;5.81
24586;BMP280;12743;52.262;6.172;2023-02-01T07:14:25;100435.09;;;5.82
24586;BMP280;12743;52.262;6.172;2023-02-01T07:16:52;100446.44;;;5.86
24586;BMP280;12743;52.262;6.172;2023-02-01T07:19:18;100435.56;;;5.84
24586;BMP280;12743;52.262;6.172;2023-02-01T07:22:10;100451.44;;;5.96
24586;BMP280;12743;52.262;6.172;2023-02-01T07:24:36;100458.13;;;5.89
24586;BMP280;12743;52.262;6.172;2023-02-01T07:27:03;100434.31;;;5.82
24586;BMP280;12743;52.262;6.172;2023-02-01T07:29:30;100435.56;;;5.84
24586;BMP280;12743;52.262;6.172;2023-02-01T07:31:56;100454.25;;;5.86
24586;BMP280;12743;52.262;6.172;2023-02-01T07:34:23;100455.69;;;5.92
24586;BMP280;12743;52.262;6.172;2023-02-01T07:36:50;100461.97;;;5.91
24586;BMP280;12743;52.262;6.172;2023-02-01T07:39:17;100423.13;;;5.81
24586;BMP280;12743;52.262;6.172;2023-02-01T07:41:43;100410.75;;;5.73
24586;BMP280;12743;52.262;6.172;2023-02-01T07:44:12;100420.50;;;5.81
24586;BMP280;12743;52.262;6.172;2023-02-01T07:46:38;100408.53;;;5.80
24586;BMP280;12743;52.262;6.172;2023-02-01T07:49:05;100406.13;;;5.84
24586;BMP280;12743;52.262;6.172;2023-02-01T07:51:32;100417.47;;;5.88
24586;BMP280;12743;52.262;6.172;2023-02-01T07:53:59;100408.34;;;5.77
24586;BMP280;12743;52.262;6.172;2023-02-01T07:56:25;100397.06;;;5.81
24586;BMP280;12743;52.262;6.172;2023-02-01T07:58:53;100411.50;;;5.87
24586;BMP280;12743;52.262;6.172;2023-02-01T08:01:24;100388.97;;;5.83
24586;BMP280;12743;52.262;6.172;2023-02-01T08:03:56;100411.69;;;5.91
24586;BMP280;12743;52.262;6.172;2023-02-01T08:06:25;100414.59;;;5.89
24586;BMP280;12743;52.262;6.172;2023-02-01T08:08:53;100403.66;;;5.87
24586;BMP280;12743;52.262;6.172;2023-02-01T08:11:21;100397.34;;;5.80
24586;BMP280;12743;52.262;6.172;2023-02-01T08:13:48;100414.41;;;5.86
24586;BMP280;12743;52.262;6.172;2023-02-01T08:16:16;100431.94;;;5.94
24586;BMP280;12743;52.262;6.172;2023-02-01T08:18:44;100427.03;;;5.92
24586;BMP280;12743;52.262;6.172;2023-02-01T08:21:16;100409.38;;;5.89
24586;BMP280;12743;52.262;6.172;2023-02-01T08:23:43;100391.25;;;5.84
24586;BMP280;12743;52.262;6.172;2023-02-01T08:28:41;100392.06;;;5.93
24586;BMP280;12743;52.262;6.172;2023-02-01T08:31:11;100384.25;;;5.93
24586;BMP280;12743;52.262;6.172;2023-02-01T08:33:38;100371.13;;;5.98
24586;BMP280;12743;52.262;6.172;2023-02-01T08:36:05;100365.28;;;6.01
24586;BMP280;12743;52.262;6.172;2023-02-01T08:38:32;100395.84;;;6.09
24586;BMP280;12743;52.262;6.172;2023-02-01T08:41:04;100406.16;;;6.14
24586;BMP280;12743;52.262;6.172;2023-02-01T08:43:30;100388.81;;;6.10
24586;BMP280;12743;52.262;6.172;2023-02-01T08:45:57;100374.00;;;5.97
24586;BMP280;12743;52.262;6.172;2023-02-01T08:48:23;100381.13;;;6.05
24586;BMP280;12743;52.262;6.172;2023-02-01T08:50:50;100402.97;;;6.17
24586;BMP280;12743;52.262;6.172;2023-02-01T08:53:17;100384.13;;;6.20
24586;BMP280;12743;52.262;6.172;2023-02-01T08:55:45;100378.91;;;6.20
24586;BMP280;12743;52.262;6.172;2023-02-01T08:58:12;100381.81;;;6.19
24586;BMP280;12743;52.262;6.172;2023-02-01T09:00:40;100354.88;;;6.01
24586;BMP280;12743;52.262;6.172;2023-02-01T09:03:09;100385.06;;;6.25
24586;BMP280;12743;52.262;6.172;2023-02-01T09:05:38;100391.06;;;6.25
24586;BMP280;12743;52.262;6.172;2023-02-01T09:08:14;100382.31;;;6.30
24586;BMP280;12743;52.262;6.172;2023-02-01T09:10:41;100416.28;;;6.38
24586;BMP280;12743;52.262;6.172;2023-02-01T09:13:08;100383.84;;;6.22
24586;BMP280;12743;52.262;6.172;2023-02-01T09:15:35;100410.28;;;6.38
24586;BMP280;12743;52.262;6.172;2023-02-01T09:18:03;100398.31;;;6.37
24586;BMP280;12743;52.262;6.172;2023-02-01T09:20:29;100399.50;;;6.31
24586;BMP280;12743;52.262;6.172;2023-02-01T09:22:56;100406.63;;;6.39
24586;BMP280;12743;52.262;6.172;2023-02-01T09:25:23;100421.34;;;6.43
24586;BMP280;12743;52.262;6.172;2023-02-01T09:27:49;100419.66;;;6.39
24586;BMP280;12743;52.262;6.172;2023-02-01T09:30:16;100432.28;;;6.45
24586;BMP280;12743;52.262;6.172;2023-02-01T09:32:43;100433.78;;;6.46
24586;BMP280;12743;52.262;6.172;2023-02-01T09:35:09;100418.63;;;6.48
24586;BMP280;12743;52.262;6.172;2023-02-01T09:37:36;100427.22;;;6.49
24586;BMP280;12743;52.262;6.172;2023-02-01T09:40:04;100450.13;;;6.52
24586;BMP280;12743;52.262;6.172;2023-02-01T09:48:22;100475.28;;;6.56
24586;BMP280;12743;52.262;6.172;2023-02-01T09:50:55;100419.03;;;6.42
24586;BMP280;12743;52.262;6.172;2023-02-01T09:53:40;100472.66;;;6.56
24586;BMP280;12743;52.262;6.172;2023-02-01T09:56:21;100463.78;;;6.57
24586;BMP280;12743;52.262;6.172;2023-02-01T10:01:40;100480.50;;;6.56
24586;BMP280;12743;52.262;6.172;2023-02-01T10:04:12;100474.81;;;6.54
24586;BMP280;12743;52.262;6.172;2023-02-01T10:06:57;100471.31;;;6.59
24586;BMP280;12743;52.262;6.172;2023-02-01T10:09:39;100445.81;;;6.56
24586;BMP280;12743;52.262;6.172;2023-02-01T10:15:11;100375.34;;;6.47
24586;BMP280;12743;52.262;6.172;2023-02-01T10:26:20;100225.38;;;6.19
24586;BMP280;12743;52.262;6.172;2023-02-01T10:28:59;100193.94;;;6.15
24586;BMP280;12743;52.262;6.172;2023-02-01T10:31:30;100168.00;;;6.10
24586;BMP280;12743;52.262;6.172;2023-02-01T10:33:59;100154.03;;;6.06
24586;BMP280;12743;52.262;6.172;2023-02-01T10:36:34;100150.38;;;6.07
24586;BMP280;12743;52.262;6.172;2023-02-01T10:39:05;100139.94;;;6.07
24586;BMP280;12743;52.262;6.172;2023-02-01T10:41:35;100122.91;;;6.01
24586;BMP280;12743;52.262;6.172;2023-02-01T10:44:09;100068.00;;;5.89
24586;BMP280;12743;52.262;6.172;2023-02-01T10:46:37;100101.63;;;5.99
24586;BMP280;12743;52.262;6.172;2023-02-01T10:49:08;100080.13;;;5.94
24586;BMP280;12743;52.262;6.172;2023-02-01T10:51:52;100068.75;;;5.90
24586;BMP280;12743;52.262;6.172;2023-02-01T10:54:22;100056.97;;;5.84
24586;BMP280;12743;52.262;6.172;2023-02-01T10:56:57;100045.78;;;5.83
24586;BMP280;12743;52.262;6.172;2023-02-01T10:59:28;100038.41;;;5.85
24586;BMP280;12743;52.262;6.172;2023-02-01T11:02:05;100026.16;;;5.86
24586;BMP280;12743;52.262;6.172;2023-02-01T11:04:39;100042.25;;;5.88
24586;BMP280;12743;52.262;6.172;2023-02-01T11:07:13;99971.13;;;5.53
24586;BMP280;12743;52.262;6.172;2023-02-01T11:09:41;100023.84;;;5.93
24586;BMP280;12743;52.262;6.172;2023-02-01T11:12:28;100013.44;;;5.93
24586;BMP280;12743;52.262;6.172;2023-02-01T11:15:02;100023.84;;;5.93
24586;BMP280;12743;52.262;6.172;2023-02-01T11:17:38;100012.84;;;5.96
24586;BMP280;12743;52.262;6.172;2023-02-01T11:20:13;99997.34;;;5.91
24586;BMP280;12743;52.262;6.172;2023-02-01T11:22:48;100020.34;;;6.06
24586;BMP280;12743;52.262;6.172;2023-02-01T11:25:19;100034.63;;;6.08
24586;BMP280;12743;52.262;6.172;2023-02-01T11:27:46;100028.63;;;6.08
24586;BMP280;12743;52.262;6.172;2023-02-01T11:30:38;100038.56;;;6.14
24586;BMP280;12743;52.262;6.172;2023-02-01T11:33:10;100037.38;;;6.12
24586;BMP280;12743;52.262;6.172;2023-02-01T11:35:39;100026.59;;;6.13
24586;BMP280;12743;52.262;6.172;2023-02-01T11:38:27;100020.34;;;6.14
24586;BMP280;12743;52.262;6.172;2023-02-01T11:40:54;100067.59;;;6.22
24586;BMP280;12743;52.262;6.172;2023-02-01T11:43:27;100067.44;;;6.27
24586;BMP280;12743;52.262;6.172;2023-02-01T11:45:59;100076.75;;;6.28
24586;BMP280;12743;52.262;6.172;2023-02-01T11:48:28;100093.34;;;6.32
24586;BMP280;12743;52.262;6.172;2023-02-01T11:56:25;100094.41;;;6.39
24586;BMP280;12743;52.262;6.172;2023-02-01T11:59:08;100109.47;;;6.51
24586;BMP280;12743;52.262;6.172;2023-02-01T12:13:06;100168.84;;;6.79
24586;BMP280;12743;52.262;6.172;2023-02-01T12:16:17;100153.00;;;6.85
24586;BMP280;12743;52.262;6.172;2023-02-01T12:19:00;100119.53;;;6.69
24586;BMP280;12743;52.262;6.172;2023-02-01T12:27:08;100098.06;;;6.81
24586;BMP280;12743;52.262;6.172;2023-02-01T12:35:23;100128.59;;;6.89
24586;BMP280;12743;52.262;6.172;2023-02-01T12:40:47;100135.06;;;6.92
24586;BMP280;12743;52.262;6.172;2023-02-01T12:43:34;100174.63;;;7.02
24586;BMP280;12743;52.262;6.172;2023-02-01T12:46:07;100211.03;;;7.07
24586;BMP280;12743;52.262;6.172;2023-02-01T12:48:50;100202.13;;;7.08
24586;BMP280;12743;52.262;6.172;2023-02-01T12:51:23;100253.72;;;7.11
24586;BMP280;12743;52.262;6.172;2023-02-01T12:54:12;100214.72;;;7.15
24586;BMP280;12743;52.262;6.172;2023-02-01T12:56:46;100224.69;;;7.13
24586;BMP280;12743;52.262;6.172;2023-02-01T12:59:27;100193.97;;;7.10
24586;BMP280;12743;52.262;6.172;2023-02-01T13:04:30;100234.34;;;7.21
24586;BMP280;12743;52.262;6.172;2023-02-01T13:07:04;100250.94;;;7.16
24586;BMP280;12743;52.262;6.172;2023-02-01T13:09:45;100230.41;;;7.15
24586;BMP280;12743;52.262;6.172;2023-02-01T13:12:15;100173.13;;;7.01
24586;BMP280;12743;52.262;6.172;2023-02-01T13:14:56;100164.31;;;7.06
24586;BMP280;12743;52.262;6.172;2023-02-01T13:17:27;100089.63;;;6.67
24586;BMP280;12743;52.262;6.172;2023-02-01T13:19:56;100059.69;;;6.81
24586;BMP280;12743;52.262;6.172;2023-02-01T13:25:03;100024.53;;;6.79
24586;BMP280;12743;52.262;6.172;2023-02-01T13:27:32;99996.78;;;6.74
24586;BMP280;12743;52.262;6.172;2023-02-01T13:30:10;99990.63;;;6.70
24586;BMP280;12743;52.262;6.172;2023-02-01T13:36:04;99930.09;;;6.48
24586;BMP280;12743;52.262;6.172;2023-02-01T13:38:59;99952.63;;;6.61
24586;BMP280;12743;52.262;6.172;2023-02-01T13:41:51;99941.59;;;6.55
24586;BMP280;12743;52.262;6.172;2023-02-01T13:44:26;99935.91;;;6.62
24586;BMP280;12743;52.262;6.172;2023-02-01T13:46:58;99949.84;;;6.66
24586;BMP280;12743;52.262;6.172;2023-02-01T13:49:38;99947.66;;;6.68
24586;BMP280;12743;52.262;6.172;2023-02-01T13:52:05;99944.78;;;6.61
24586;BMP280;12743;52.262;6.172;2023-02-01T13:54:36;99961.94;;;6.70
24586;BMP280;12743;52.262;6.172;2023-02-01T13:57:04;99949.09;;;6.65
24586;BMP280;12743;52.262;6.172;2023-02-01T14:05:08;99969.63;;;6.75
24586;BMP280;12743;52.262;6.172;2023-02-01T14:07:35;99966.22;;;6.75
24586;BMP280;12743;52.262;6.172;2023-02-01T14:13:13;99978.22;;;6.67
24586;BMP280;12743;52.262;6.172;2023-02-01T14:24:02;100032.97;;;6.85
24586;BMP280;12743;52.262;6.172;2023-02-01T14:29:03;100106.47;;;6.95
24586;BMP280;12743;52.262;6.172;2023-02-01T14:31:42;100113.06;;;6.93
24586;BMP280;12743;52.262;6.172;2023-02-01T14:34:19;100106.34;;;6.92
24586;BMP280;12743;52.262;6.172;2023-02-01T14:36:58;100131.16;;;7.06
24586;BMP280;12743;52.262;6.172;2023-02-01T14:42:05;100134.69;;;7.10
24586;BMP280;12743;52.262;6.172;2023-02-01T14:44:39;100145.91;;;7.02
24586;BMP280;12743;52.262;6.172;2023-02-01T14:52:40;100146.81;;;7.06
24586;BMP280;12743;52.262;6.172;2023-02-01T14:55:15;100167.88;;;7.10
24586;BMP280;12743;52.262;6.172;2023-02-01T14:57:46;100183.69;;;7.13
24586;BMP280;12743;52.262;6.172;2023-02-01T15:02:49;100181.41;;;7.12
24586;BMP280;12743;52.262;6.172;2023-02-01T15:05:32;100166.19;;;7.14
24586;BMP280;12743;52.262;6.172;2023-02-01T15:08:06;100174.16;;;7.09
24586;BMP280;12743;52.262;6.172;2023-02-01T15:10:40;100185.06;;;7.11
24586;BMP280;12743;52.262;6.172;2023-02-01T15:13:18;100171.25;;;7.10
24586;BMP280;12743;52.262;6.172;2023-02-01T15:16:04;100180.16;;;7.09
24586;BMP280;12743;52.262;6.172;2023-02-01T15:18:32;100159.88;;;7.06
24586;BMP280;12743;52.262;6.172;2023-02-01T15:21:00;100136.91;;;6.91
24586;BMP280;12743;52.262;6.172;2023-02-01T15:23:47;100135.69;;;6.89
24586;BMP280;12743;52.262;6.172;2023-02-01T15:26:27;100170.78;;;7.08
24586;BMP280;12743;52.262;6.172;2023-02-01T15:28:57;100140.69;;;7.02
24586;BMP280;12743;52.262;6.172;2023-02-01T15:31:37;100149.59;;;7.10
24586;BMP280;12743;52.262;6.172;2023-02-01T15:34:04;100155.41;;;7.07
24586;BMP280;12743;52.262;6.172;2023-02-01T15:36:31;100184.47;;;7.14
24586;BMP280;12743;52.262;6.172;2023-02-01T15:39:18;100187.19;;;7.17
24586;BMP280;12743;52.262;6.172;2023-02-01T15:41:48;100220.22;;;7.22
24586;BMP280;12743;52.262;6.172;2023-02-01T15:44:32;100233.47;;;7.08
24586;BMP280;12743;52.262;6.172;2023-02-01T15:47:06;100238.66;;;7.17
24586;BMP280;12743;52.262;6.172;2023-02-01T15:49:39;100228.69;;;7.10
24586;BMP280;12743;52.262;6.172;2023-02-01T15:52:20;100205.06;;;6.81
24586;BMP280;12743;52.262;6.172;2023-02-01T15:54:52;100188.94;;;6.62
24586;BMP280;12743;52.262;6.172;2023-02-01T15:57:26;100147.19;;;6.36
24586;BMP280;12743;52.262;6.172;2023-02-01T15:59:59;100126.16;;;6.15
24586;BMP280;12743;52.262;6.172;2023-02-01T16:02:50;100108.81;;;6.19
24586;BMP280;12743;52.262;6.172;2023-02-01T16:05:40;100082.28;;;6.17
24586;BMP280;12743;52.262;6.172;2023-02-01T16:08:17;100076.91;;;6.14
24586;BMP280;12743;52.262;6.172;2023-02-01T16:10:48;100059.59;;;6.09
24586;BMP280;12743;52.262;6.172;2023-02-01T16:13:16;100052.88;;;6.08
24586;BMP280;12743;52.262;6.172;2023-02-01T16:15:44;100038.59;;;6.06
24586;BMP280;12743;52.262;6.172;2023-02-01T16:18:11;100025.84;;;6.04
24586;BMP280;12743;52.262;6.172;2023-02-01T16:20:39;100020.19;;;6.02
24586;BMP280;12743;52.262;6.172;2023-02-01T16:23:07;100000.84;;;5.86
24586;BMP280;12743;52.262;6.172;2023-02-01T16:25:35;99996.28;;;5.92
24586;BMP280;12743;52.262;6.172;2023-02-01T16:28:01;99985.41;;;5.81